createdAt,value
2018-01-18T00:00:57.696Z,7.20
2018-01-18T00:03:25.192Z,8.70
2018-01-18T00:05:52.693Z,7.28
2018-01-18T00:08:20.228Z,8.00
2018-01-18T00:10:48.487Z,8.15
2018-01-18T00:13:16.066Z,8.32
2018-01-18T00:15:43.596Z,7.05
2018-01-18T00:18:11.079Z,8.80
2018-01-18T00:20:38.586Z,8.77
2018-01-18T00:23:06.111Z,9.70
2018-01-18T00:25:34.368Z,8.30
2018-01-18T00:28:01.944Z,10.35
2018-01-18T00:30:30.227Z,7.93
2018-01-18T00:32:57.774Z,10.32
2018-01-18T00:35:26.048Z,9.27
2018-01-18T00:37:53.592Z,8.80
2018-01-18T00:40:21.107Z,10.15
2018-01-18T00:42:48.589Z,8.85
2018-01-18T00:45:16.095Z,11.32
2018-01-18T00:47:43.646Z,11.18
2018-01-18T00:50:11.923Z,10.20
2018-01-18T00:52:40.191Z,10.63
2018-01-18T00:55:08.484Z,11.18
2018-01-18T00:57:35.996Z,14.32
2018-01-18T01:00:03.505Z,13.40
2018-01-18T01:02:31.079Z,12.30
2018-01-18T01:04:58.588Z,12.60
2018-01-18T01:07:26.863Z,10.60
2018-01-18T01:09:54.419Z,11.52
2018-01-18T01:12:21.936Z,10.50
2018-01-18T01:14:49.420Z,9.27
2018-01-18T01:17:17.868Z,10.45
2018-01-18T01:19:45.413Z,8.02
2018-01-18T01:22:13.666Z,8.32
2018-01-18T01:24:41.931Z,9.38
2018-01-18T01:27:09.476Z,9.07
2018-01-18T01:29:36.989Z,8.77
2018-01-18T01:32:04.520Z,7.97
2018-01-18T01:34:32.808Z,8.45
2018-01-18T01:37:01.100Z,8.30
2018-01-18T01:39:28.617Z,9.85
2018-01-18T01:41:56.932Z,6.53
2018-01-18T01:44:24.425Z,7.50
2018-01-18T01:46:51.935Z,9.40
2018-01-18T01:49:20.207Z,11.12
2018-01-18T01:51:48.493Z,6.72
2018-01-18T01:54:16.078Z,6.70
2018-01-18T01:56:43.776Z,6.97
2018-01-18T01:59:11.271Z,7.95
2018-01-18T02:01:39.554Z,6.53
2018-01-18T02:04:07.931Z,6.90
2018-01-18T02:06:36.190Z,7.03
2018-01-18T02:09:04.466Z,7.68
2018-01-18T02:11:31.975Z,7.57
2018-01-18T02:13:59.531Z,8.32
2018-01-18T02:16:27.085Z,10.43
2018-01-18T02:18:54.617Z,6.43
2018-01-18T02:21:22.880Z,8.18
2018-01-18T02:23:50.386Z,8.27
2018-01-18T02:26:17.893Z,9.30
2018-01-18T02:28:45.397Z,8.82
2018-01-18T02:31:12.881Z,7.00
2018-01-18T02:33:40.383Z,9.10
2018-01-18T02:36:08.702Z,11.43
2018-01-18T02:38:36.201Z,10.38
2018-01-18T02:41:03.703Z,9.82
2018-01-18T02:43:31.190Z,11.52
2018-01-18T02:45:58.686Z,12.27
2018-01-18T02:48:26.952Z,9.50
2018-01-18T02:50:54.548Z,6.80
2018-01-18T02:53:22.099Z,12.05
2018-01-18T02:55:49.597Z,11.55
2018-01-18T02:58:17.120Z,7.03
2018-01-18T03:00:44.681Z,10.38
2018-01-18T03:03:12.174Z,9.65
2018-01-18T03:05:39.704Z,11.18
2018-01-18T03:08:07.202Z,8.85
2018-01-18T03:10:34.725Z,9.00
2018-01-18T03:13:02.272Z,10.75
2018-01-18T03:15:29.777Z,7.00
2018-01-18T03:17:57.300Z,9.88
2018-01-18T03:20:24.856Z,10.90
2018-01-18T03:22:52.388Z,11.88
2018-01-18T03:25:19.997Z,8.85
2018-01-18T03:27:47.492Z,12.18
2018-01-18T03:30:15.014Z,9.38
2018-01-18T03:32:42.516Z,10.85
2018-01-18T03:35:11.563Z,9.88
2018-01-18T03:37:39.057Z,12.85
2018-01-18T03:40:06.652Z,10.13
2018-01-18T03:42:34.942Z,10.95
2018-01-18T03:45:02.425Z,9.35
2018-01-18T03:47:29.956Z,10.23
2018-01-18T03:49:57.468Z,15.63
2018-01-18T03:52:24.971Z,9.27
2018-01-18T03:54:53.243Z,8.57
2018-01-18T03:57:21.510Z,10.38
2018-01-18T03:59:49.807Z,12.40
2018-01-18T04:02:17.309Z,10.20
2018-01-18T04:04:45.521Z,8.52
2018-01-18T04:07:13.811Z,10.75
2018-01-18T04:09:41.378Z,10.23
2018-01-18T04:12:08.932Z,10.20
2018-01-18T04:14:37.235Z,9.30
2018-01-18T04:17:04.764Z,9.52
2018-01-18T04:19:32.436Z,11.45
2018-01-18T04:21:59.937Z,9.50
2018-01-18T04:24:27.544Z,10.25
2018-01-18T04:26:55.832Z,11.85
2018-01-18T04:29:23.335Z,10.85
2018-01-18T04:31:50.882Z,10.77
2018-01-18T04:34:18.424Z,10.18
2018-01-18T04:36:45.948Z,8.63
2018-01-18T04:39:14.196Z,8.63
2018-01-18T04:41:41.708Z,11.20
2018-01-18T04:44:09.268Z,11.35
2018-01-18T04:46:36.795Z,10.75
2018-01-18T04:49:05.084Z,13.20
2018-01-18T04:51:33.365Z,11.52
2018-01-18T04:54:00.878Z,8.80
2018-01-18T04:56:29.191Z,13.27
2018-01-18T04:58:56.718Z,19.30
2018-01-18T05:01:24.372Z,12.65
2018-01-18T05:03:51.868Z,10.60
2018-01-18T05:06:20.752Z,9.52
2018-01-18T05:08:49.015Z,12.25
2018-01-18T05:11:16.633Z,10.70
2018-01-18T05:13:44.151Z,11.55
2018-01-18T05:16:12.438Z,12.13
2018-01-18T05:18:40.018Z,8.73
2018-01-18T05:21:07.535Z,11.20
2018-01-18T05:23:35.818Z,10.23
2018-01-18T05:26:04.095Z,8.52
2018-01-18T05:28:31.621Z,11.57
2018-01-18T05:30:59.137Z,12.35
2018-01-18T05:33:26.669Z,8.45
2018-01-18T05:35:54.275Z,11.55
2018-01-18T05:38:21.815Z,9.45
2018-01-18T05:40:49.397Z,11.18
2018-01-18T05:43:16.933Z,12.05
2018-01-18T05:45:44.423Z,12.52
2018-01-18T05:48:11.903Z,8.95
2018-01-18T05:50:39.444Z,9.27
2018-01-18T05:53:06.934Z,9.90
2018-01-18T05:55:35.980Z,8.90
2018-01-18T05:58:03.490Z,9.05
2018-01-18T06:00:30.984Z,10.90
2018-01-18T06:02:58.504Z,11.25
2018-01-18T06:05:26.100Z,8.13
2018-01-18T06:07:53.620Z,19.27
2018-01-18T06:10:21.963Z,11.82
2018-01-18T06:12:49.460Z,7.25
2018-01-18T06:15:17.751Z,12.55
2018-01-18T06:17:46.115Z,11.55
2018-01-18T06:20:13.612Z,8.18
2018-01-18T06:22:41.147Z,7.65
2018-01-18T06:25:09.415Z,9.30
2018-01-18T06:27:37.716Z,9.85
2018-01-18T06:30:05.986Z,8.30
2018-01-18T06:32:34.251Z,9.63
2018-01-18T06:35:02.592Z,10.52
2018-01-18T06:37:30.481Z,12.13
2018-01-18T06:39:57.999Z,10.32
2018-01-18T06:42:25.525Z,10.40
2018-01-18T06:44:53.812Z,11.27
2018-01-18T06:47:21.337Z,10.30
2018-01-18T06:49:48.843Z,10.93
2018-01-18T06:52:16.358Z,7.43
2018-01-18T06:54:43.878Z,10.15
2018-01-18T06:57:11.371Z,8.63
2018-01-18T06:59:38.960Z,7.85
2018-01-18T07:02:06.470Z,9.20
2018-01-18T07:04:33.996Z,11.18
2018-01-18T07:07:01.540Z,10.32
2018-01-18T07:09:29.797Z,9.98
2018-01-18T07:11:58.088Z,10.35
2018-01-18T07:14:26.357Z,12.93
2018-01-18T07:16:53.884Z,8.93
2018-01-18T07:19:21.389Z,10.43
2018-01-18T07:21:48.888Z,10.05
2018-01-18T07:24:16.414Z,10.23
2018-01-18T07:26:43.917Z,9.60
2018-01-18T07:29:11.438Z,12.95
2018-01-18T07:31:38.989Z,12.55
2018-01-18T07:34:06.476Z,9.00
2018-01-18T07:36:34.000Z,14.45
2018-01-18T07:39:01.491Z,8.48
2018-01-18T07:41:29.272Z,9.55
2018-01-18T07:43:56.798Z,8.60
2018-01-18T07:46:24.299Z,8.77
2018-01-18T07:48:51.904Z,9.52
2018-01-18T07:51:19.395Z,10.65
2018-01-18T07:53:52.648Z,8.60
2018-01-18T07:56:20.230Z,8.85
2018-01-18T07:58:47.767Z,7.68
2018-01-18T08:01:15.284Z,10.95
2018-01-18T08:03:48.448Z,9.63
2018-01-18T08:06:15.961Z,7.62
2018-01-18T08:08:44.221Z,8.27
2018-01-18T08:11:11.748Z,12.45
2018-01-18T08:13:39.288Z,9.27
2018-01-18T08:16:06.827Z,8.73
2018-01-18T08:18:35.141Z,8.02
2018-01-18T08:21:02.635Z,10.70
2018-01-18T08:23:30.172Z,23.92
2018-01-18T08:25:57.675Z,8.55
2018-01-18T08:28:25.963Z,9.45
2018-01-18T08:30:53.519Z,7.28
2018-01-18T08:33:21.023Z,8.20
2018-01-18T08:35:48.540Z,9.98
2018-01-18T08:38:16.115Z,9.95
2018-01-18T08:40:43.650Z,7.28
2018-01-18T08:43:11.176Z,8.45
2018-01-18T08:45:38.672Z,8.02
2018-01-18T08:48:06.185Z,7.57
2018-01-18T08:50:33.669Z,8.10
2018-01-18T08:53:01.933Z,9.20
2018-01-18T08:55:30.207Z,8.40
2018-01-18T08:57:58.513Z,7.30
2018-01-18T09:00:26.896Z,6.22
2018-01-18T09:02:54.511Z,6.87
2018-01-18T09:05:22.017Z,5.07
2018-01-18T09:07:50.371Z,6.93
2018-01-18T09:10:18.710Z,7.57
2018-01-18T09:12:46.228Z,8.33
2018-01-18T09:15:13.791Z,9.27
2018-01-18T09:17:41.354Z,6.30
2018-01-18T09:20:08.944Z,7.63
2018-01-18T09:22:36.469Z,6.40
2018-01-18T09:25:03.965Z,5.77
2018-01-18T09:27:31.496Z,5.15
2018-01-18T09:29:59.007Z,4.23
2018-01-18T09:32:26.531Z,4.57
2018-01-18T09:34:54.041Z,7.93
2018-01-18T09:37:21.586Z,6.50
2018-01-18T09:39:49.178Z,5.50
2018-01-18T09:42:18.017Z,5.87
2018-01-18T09:44:45.561Z,6.70
2018-01-18T09:47:13.049Z,4.50
2018-01-18T09:49:40.549Z,10.45
2018-01-18T09:52:08.110Z,9.77
2018-01-18T09:54:36.393Z,9.30
2018-01-18T09:57:03.903Z,6.78
2018-01-18T09:59:31.514Z,6.10
2018-01-18T10:01:59.004Z,6.85
2018-01-18T10:04:26.530Z,9.48
2018-01-18T10:06:54.062Z,7.62
2018-01-18T10:09:22.365Z,7.12
2018-01-18T10:11:49.924Z,9.23
2018-01-18T10:14:17.413Z,9.48
2018-01-18T10:16:44.920Z,10.25
2018-01-18T10:19:13.189Z,8.43
2018-01-18T10:21:40.698Z,8.40
2018-01-18T10:24:08.206Z,7.45
2018-01-18T10:26:36.487Z,7.85
2018-01-18T10:29:04.787Z,7.12
2018-01-18T10:31:32.485Z,12.25
2018-01-18T10:33:59.999Z,11.55
2018-01-18T10:36:28.260Z,9.68
2018-01-18T10:38:57.446Z,9.75
2018-01-18T10:41:26.490Z,14.70
2018-01-18T10:43:53.983Z,19.48
2018-01-18T10:46:21.501Z,8.27
2018-01-18T10:48:49.007Z,8.77
2018-01-18T10:51:17.259Z,10.93
2018-01-18T10:53:44.778Z,11.02
2018-01-18T10:56:13.039Z,14.65
2018-01-18T10:58:40.588Z,8.88
2018-01-18T11:01:08.091Z,9.25
2018-01-18T11:03:36.583Z,10.13
2018-01-18T11:06:04.115Z,10.48
2018-01-18T11:08:32.405Z,15.18
2018-01-18T11:10:59.912Z,9.00
2018-01-18T11:13:27.408Z,8.13
2018-01-18T11:15:55.677Z,8.93
2018-01-18T11:18:23.978Z,8.88
2018-01-18T11:20:51.478Z,7.30
2018-01-18T11:23:19.016Z,8.10
2018-01-18T11:25:46.664Z,8.38
2018-01-18T11:28:14.148Z,9.52
2018-01-18T11:30:41.670Z,12.35
2018-01-18T11:33:09.219Z,9.05
2018-01-18T11:35:37.714Z,7.90
2018-01-18T11:38:05.258Z,8.50
2018-01-18T11:40:32.819Z,7.50
2018-01-18T11:43:00.382Z,6.57
2018-01-18T11:45:27.894Z,7.28
2018-01-18T11:47:55.490Z,7.20
2018-01-18T11:50:23.774Z,8.10
2018-01-18T11:52:52.062Z,6.72
2018-01-18T11:55:19.648Z,7.43
2018-01-18T11:57:47.195Z,5.75
2018-01-18T12:00:14.863Z,6.50
2018-01-18T12:02:42.422Z,6.45
2018-01-18T12:05:09.924Z,6.30
2018-01-18T12:07:38.198Z,5.68
2018-01-18T12:10:05.719Z,5.80
2018-01-18T12:12:33.240Z,4.55
2018-01-18T12:15:01.546Z,4.97
2018-01-18T12:17:29.089Z,5.85
2018-01-18T12:19:56.637Z,4.65
2018-01-18T12:22:24.976Z,3.58
2018-01-18T12:24:52.478Z,4.82
2018-01-18T12:27:20.068Z,4.25
2018-01-18T12:29:47.563Z,3.90
2018-01-18T12:32:15.917Z,4.00
2018-01-18T12:34:43.527Z,3.92
2018-01-18T12:37:11.817Z,5.35
2018-01-18T12:39:39.373Z,3.33
2018-01-18T12:42:07.759Z,3.35
2018-01-18T12:44:36.953Z,3.25
2018-01-18T12:47:04.460Z,2.75
2018-01-18T12:49:32.132Z,3.22
2018-01-18T12:51:59.715Z,9.50
2018-01-18T12:54:27.974Z,2.97
2018-01-18T12:56:55.511Z,3.53
2018-01-18T12:59:23.155Z,2.83
2018-01-18T13:01:50.904Z,3.10
2018-01-18T13:04:18.531Z,3.35
2018-01-18T13:06:46.810Z,4.27
2018-01-18T13:09:15.065Z,4.43
2018-01-18T13:11:42.566Z,3.22
2018-01-18T13:14:10.101Z,3.13
2018-01-18T13:16:37.586Z,3.00
2018-01-18T13:19:05.074Z,2.83
2018-01-18T13:21:32.633Z,2.60
2018-01-18T13:24:00.127Z,3.50
2018-01-18T13:26:27.635Z,3.30
2018-01-18T13:28:55.173Z,3.17
2018-01-18T13:31:22.669Z,2.50
2018-01-18T13:33:50.161Z,2.40
2018-01-18T13:36:17.676Z,2.27
2018-01-18T13:38:45.203Z,3.07
2018-01-18T13:41:13.483Z,2.20
2018-01-18T13:43:41.053Z,2.27
2018-01-18T13:46:08.590Z,2.70
2018-01-18T13:48:36.844Z,2.27
2018-01-18T13:51:04.348Z,2.10
2018-01-18T13:53:31.907Z,1.80
2018-01-18T13:55:59.405Z,1.77
2018-01-18T13:58:26.935Z,1.90
2018-01-18T14:00:54.446Z,1.70
2018-01-18T14:03:22.002Z,3.10
2018-01-18T14:05:49.496Z,2.13
2018-01-18T14:08:16.998Z,2.00
2018-01-18T14:10:44.506Z,2.97
2018-01-18T14:13:12.792Z,2.73
2018-01-18T14:15:40.313Z,2.17
2018-01-18T14:18:07.830Z,2.33
2018-01-18T14:20:35.316Z,4.23
2018-01-18T14:23:02.825Z,4.87
2018-01-18T14:25:30.317Z,3.33
2018-01-18T14:27:57.842Z,3.17
2018-01-18T14:30:25.339Z,2.67
2018-01-18T14:32:52.856Z,2.73
2018-01-18T14:35:21.139Z,2.27
2018-01-18T14:37:48.645Z,2.50
2018-01-18T14:40:16.245Z,3.20
2018-01-18T14:42:44.520Z,3.17
2018-01-18T14:45:12.014Z,3.27
2018-01-18T14:47:39.520Z,5.23
2018-01-18T14:50:07.771Z,2.30
2018-01-18T14:52:35.286Z,2.23
2018-01-18T14:55:02.833Z,2.80
2018-01-18T14:57:31.095Z,3.53
2018-01-18T14:59:59.353Z,3.67
2018-01-18T15:02:26.939Z,3.20
2018-01-18T15:04:55.220Z,4.30
2018-01-18T15:07:23.482Z,3.97
2018-01-18T15:09:51.740Z,3.37
2018-01-18T15:12:19.380Z,2.27
2018-01-18T15:14:46.876Z,2.50
2018-01-18T15:17:14.465Z,3.77
2018-01-18T15:19:42.020Z,3.27
2018-01-18T15:22:09.524Z,2.40
2018-01-18T15:24:37.010Z,2.10
2018-01-18T15:27:05.269Z,2.43
2018-01-18T15:29:32.865Z,3.37
2018-01-18T15:32:01.151Z,3.27
2018-01-18T15:34:28.643Z,2.27
2018-01-18T15:36:56.143Z,2.93
2018-01-18T15:39:24.419Z,2.63
2018-01-18T15:41:51.928Z,3.63
2018-01-18T15:44:19.464Z,3.63
2018-01-18T15:46:46.953Z,2.40
2018-01-18T15:49:14.442Z,2.10
2018-01-18T15:51:42.040Z,2.13
2018-01-18T15:54:09.548Z,2.97
2018-01-18T15:56:37.189Z,2.47
2018-01-18T15:59:04.677Z,2.03
2018-01-18T16:01:33.701Z,2.13
2018-01-18T16:04:01.988Z,1.83
2018-01-18T16:06:29.496Z,1.80
2018-01-18T16:08:56.985Z,2.77
2018-01-18T16:11:25.281Z,2.37
2018-01-18T16:13:52.848Z,2.00
2018-01-18T16:16:20.333Z,1.70
2018-01-18T16:18:47.866Z,3.10
2018-01-18T16:21:15.432Z,2.10
2018-01-18T16:23:42.990Z,3.47
2018-01-18T16:26:10.472Z,1.70
2018-01-18T16:28:37.955Z,1.90
2018-01-18T16:31:05.579Z,3.20
2018-01-18T16:33:33.101Z,2.47
2018-01-18T16:36:01.364Z,2.30
2018-01-18T16:38:29.660Z,2.23
2018-01-18T16:40:57.150Z,1.80
2018-01-18T16:43:24.789Z,2.03
2018-01-18T16:45:52.403Z,2.53
2018-01-18T16:48:20.179Z,2.37
2018-01-18T16:50:47.716Z,2.60
2018-01-18T16:53:15.246Z,1.97
2018-01-18T16:55:42.817Z,2.53
2018-01-18T16:58:10.469Z,2.83
2018-01-18T17:00:38.043Z,3.07
2018-01-18T17:03:05.664Z,3.08
2018-01-18T17:05:33.225Z,3.17
2018-01-18T17:08:00.790Z,3.70
2018-01-18T17:10:28.280Z,3.10
2018-01-18T17:12:55.781Z,3.00
2018-01-18T17:15:23.365Z,3.20
2018-01-18T17:17:50.860Z,3.83
2018-01-18T17:20:18.380Z,3.28
2018-01-18T17:22:45.866Z,3.50
2018-01-18T17:25:13.385Z,4.37
2018-01-18T17:27:41.674Z,3.75
2018-01-18T17:30:09.462Z,3.28
2018-01-18T17:32:36.983Z,3.40
2018-01-18T17:35:05.272Z,3.53
2018-01-18T17:37:32.760Z,3.30
2018-01-18T17:40:00.259Z,3.47
2018-01-18T17:42:27.751Z,3.25
2018-01-18T17:44:55.261Z,4.10
2018-01-18T17:47:22.754Z,3.60
2018-01-18T17:49:51.014Z,3.60
2018-01-18T17:52:19.307Z,3.30
2018-01-18T17:54:48.126Z,3.30
2018-01-18T17:57:15.623Z,2.80
2018-01-18T17:59:43.123Z,2.87
2018-01-18T18:02:11.403Z,2.60
2018-01-18T18:04:38.898Z,2.40
2018-01-18T18:07:06.406Z,2.80
2018-01-18T18:09:34.667Z,3.00
2018-01-18T18:12:02.923Z,2.60
2018-01-18T18:14:30.434Z,2.40
2018-01-18T18:16:57.999Z,2.53
2018-01-18T18:19:27.684Z,2.28
2018-01-18T18:21:55.954Z,2.40
2018-01-18T18:24:24.219Z,2.17
2018-01-18T18:26:51.864Z,2.30
2018-01-18T18:29:19.353Z,2.20
2018-01-18T18:31:47.609Z,2.00
2018-01-18T18:34:15.198Z,2.53
2018-01-18T18:36:43.440Z,2.10
2018-01-18T18:39:10.946Z,2.23
2018-01-18T18:41:38.441Z,3.10
2018-01-18T18:44:05.933Z,2.72
2018-01-18T18:46:34.195Z,2.83
2018-01-18T18:49:02.503Z,2.37
2018-01-18T18:51:30.776Z,2.28
2018-01-18T18:53:59.072Z,2.80
2018-01-18T18:56:26.572Z,2.40
2018-01-18T18:58:54.079Z,2.75
2018-01-18T19:01:21.646Z,2.70
2018-01-18T19:03:49.181Z,2.50
2018-01-18T19:06:17.445Z,2.30
2018-01-18T19:08:44.945Z,2.60
2018-01-18T19:11:12.454Z,2.57
2018-01-18T19:13:40.727Z,2.30
2018-01-18T19:16:08.290Z,2.30
2018-01-18T19:18:35.780Z,2.28
2018-01-18T19:21:03.341Z,2.45
2018-01-18T19:23:30.880Z,3.22
2018-01-18T19:25:59.152Z,2.40
2018-01-18T19:28:27.560Z,2.58
2018-01-18T19:30:55.087Z,2.58
2018-01-18T19:33:23.440Z,2.62
2018-01-18T19:35:50.984Z,2.53
2018-01-18T19:38:18.476Z,2.90
2018-01-18T19:40:45.978Z,3.17
2018-01-18T19:43:13.465Z,2.73
2018-01-18T19:45:41.021Z,2.83
2018-01-18T19:48:08.553Z,2.47
2018-01-18T19:50:36.096Z,2.67
2018-01-18T19:53:04.381Z,2.70
2018-01-18T19:55:31.908Z,2.73
2018-01-18T19:57:59.396Z,2.53
2018-01-18T20:00:27.675Z,2.53
2018-01-18T20:02:55.178Z,2.95
2018-01-18T20:05:22.688Z,2.97
2018-01-18T20:07:51.025Z,3.00
2018-01-18T20:10:18.695Z,2.90
2018-01-18T20:12:46.185Z,2.73
2018-01-18T20:15:14.427Z,2.70
2018-01-18T20:17:41.940Z,2.87
2018-01-18T20:20:09.434Z,2.80
2018-01-18T20:22:36.942Z,3.05
2018-01-18T20:25:05.236Z,2.87
2018-01-18T20:27:32.790Z,2.90
2018-01-18T20:30:00.309Z,2.80
2018-01-18T20:32:29.329Z,3.20
2018-01-18T20:34:56.841Z,3.22
2018-01-18T20:37:24.385Z,3.25
2018-01-18T20:39:51.908Z,3.33
2018-01-18T20:42:19.422Z,3.72
2018-01-18T20:44:46.925Z,3.65
2018-01-18T20:47:15.188Z,3.30
2018-01-18T20:49:43.490Z,3.55
2018-01-18T20:52:10.996Z,3.58
2018-01-18T20:54:38.509Z,3.53
2018-01-18T20:57:06.035Z,3.78
2018-01-18T20:59:34.336Z,3.70
2018-01-18T21:02:01.988Z,4.00
2018-01-18T21:04:29.544Z,3.80
2018-01-18T21:06:57.072Z,3.92
2018-01-18T21:09:24.563Z,3.87
2018-01-18T21:11:52.073Z,3.78
2018-01-18T21:14:19.572Z,4.28
2018-01-18T21:16:47.847Z,3.47
2018-01-18T21:19:16.149Z,3.87
2018-01-18T21:21:43.696Z,3.70
2018-01-18T21:24:11.201Z,3.65
2018-01-18T21:26:38.719Z,3.80
2018-01-18T21:29:06.204Z,3.65
2018-01-18T21:31:33.788Z,3.40
2018-01-18T21:34:01.316Z,3.95
2018-01-18T21:36:28.806Z,3.45
2018-01-18T21:38:56.322Z,3.33
2018-01-18T21:41:23.871Z,2.97
2018-01-18T21:43:51.383Z,3.45
2018-01-18T21:46:18.902Z,3.12
2018-01-18T21:48:46.410Z,3.60
2018-01-18T21:51:13.931Z,4.22
2018-01-18T21:53:41.448Z,3.87
2018-01-18T21:56:09.720Z,3.40
2018-01-18T21:58:37.998Z,3.85
2018-01-18T22:01:06.918Z,3.40
2018-01-18T22:03:34.422Z,3.23
2018-01-18T22:06:01.912Z,3.45
2018-01-18T22:08:29.447Z,3.65
2018-01-18T22:10:56.963Z,3.47
2018-01-18T22:13:24.496Z,4.05
2018-01-18T22:15:52.786Z,3.45
2018-01-18T22:18:20.277Z,3.83
2018-01-18T22:20:47.788Z,4.03
2018-01-18T22:23:15.304Z,4.68
2018-01-18T22:25:42.817Z,3.85
2018-01-18T22:28:10.332Z,4.07
2018-01-18T22:30:37.824Z,4.43
2018-01-18T22:33:06.118Z,4.10
2018-01-18T22:35:34.116Z,4.10
2018-01-18T22:38:01.639Z,3.90
2018-01-18T22:40:29.220Z,4.28
2018-01-18T22:42:57.354Z,3.85
2018-01-18T22:45:26.180Z,3.90
2018-01-18T22:47:53.772Z,4.30
2018-01-18T22:50:21.261Z,4.10
2018-01-18T22:52:49.521Z,4.70
2018-01-18T22:55:17.821Z,4.15
2018-01-18T22:57:46.096Z,3.62
2018-01-18T23:00:17.858Z,4.20
2018-01-18T23:02:46.231Z,3.50
2018-01-18T23:05:14.493Z,4.07
2018-01-18T23:07:41.984Z,3.75
2018-01-18T23:10:09.491Z,4.40
2018-01-18T23:12:36.983Z,4.10
2018-01-18T23:15:05.270Z,4.75
2018-01-18T23:17:32.763Z,4.90
2018-01-18T23:20:00.268Z,4.10
2018-01-18T23:22:28.549Z,4.80
2018-01-18T23:24:56.806Z,3.85
2018-01-18T23:27:25.091Z,3.90
2018-01-18T23:29:53.359Z,4.07
2018-01-18T23:32:20.872Z,4.35
2018-01-18T23:34:48.612Z,4.60
2018-01-18T23:37:16.104Z,4.55
2018-01-18T23:39:43.604Z,4.53
2018-01-18T23:42:11.189Z,4.70
2018-01-18T23:44:38.695Z,4.40
2018-01-18T23:47:06.203Z,4.47
2018-01-18T23:49:34.458Z,5.50
2018-01-18T23:52:01.978Z,4.60
2018-01-18T23:54:29.539Z,4.78
2018-01-18T23:56:57.029Z,5.78
2018-01-18T23:59:24.556Z,4.60
